»·PEaware :: N256Z KVNY-KRDM

N256Z :: KVNY-KRDM

FLIGHT INFORMATION

Flight Status: Arrived
Operator: Privately registered:
United States
More flights under this callsign
Pilot: Gregory A. (9731)
Aircraft: PIPER PA-46-500TP MALIBU MERIDIAN
(P46T)
More flights by this aircraft type
Origin: KVNY Van Nuys
United States
Destination: KRDM Roberts
United States
More flights between these airports :: More routes between these airports
Route: +CANOG2 GMN EHF J5 SEA
File this flight plan on PilotEdge
Remarks:
Altitude:
(Current/Filed)
28,000ft
Speed:
(Current/Filed)
310kts
Departed: 22-Sep-18 12:13 PM
Arrived: 22-Sep-18 12:49 PM
Distance/Time
Traveled:
615nm/0:35
Distance/Time
To Go:
Arrived

Flight Plot

Page will automatically refresh every two minutes.

Flight plan parsing failed; only flown route is shown


Map Options




Map Legend


Flown Route
Filed Route
Departure Airport
Arrival Airport
Navaid (VOR, NDB)
Fix

Horizontal Profiles

Position Reports

Time Latitude Longitude Heading Altitude Ground
Speed
22-Sep-18 12:14 42.766852 -120.604845 338 28192ft 283kts
22-Sep-18 12:15 42.843054 -120.630606 338 28195ft 282kts
22-Sep-18 12:16 42.919806 -120.656679 338 27421ft 284kts
22-Sep-18 12:17 42.996600 -120.682848 338 26424ft 285kts
22-Sep-18 12:18 43.073237 -120.708968 339 25412ft 283kts
22-Sep-18 12:19 43.148978 -120.735928 336 24411ft 279kts
22-Sep-18 12:20 43.221839 -120.766058 337 22966ft 270kts
22-Sep-18 12:21 43.293973 -120.793944 338 21369ft 268kts
22-Sep-18 12:22 43.366610 -120.817760 342 19769ft 267kts
22-Sep-18 12:23 43.437048 -120.837260 342 18170ft 255kts
22-Sep-18 12:24 43.506951 -120.856098 342 16570ft 255kts
22-Sep-18 12:25 43.577250 -120.867476 10 14979ft 269kts
22-Sep-18 12:26 43.646692 -120.823274 20 13440ft 283kts
22-Sep-18 12:27 43.715481 -120.775375 21 13212ft 272kts
22-Sep-18 12:28 43.785187 -120.727246 21 12066ft 283kts
22-Sep-18 12:29 43.857667 -120.686995 13 10892ft 280kts
22-Sep-18 12:30 43.925736 -120.660030 12 10257ft 238kts
22-Sep-18 12:31 43.987092 -120.636544 12 10249ft 219kts
22-Sep-18 12:32 44.045248 -120.614105 12 10243ft 215kts
22-Sep-18 12:33 44.096756 -120.594000 12 10213ft 176kts
22-Sep-18 12:34 44.143233 -120.575686 12 10221ft 172kts
22-Sep-18 12:35 44.189281 -120.557475 12 10221ft 171kts
22-Sep-18 12:36 44.235040 -120.539359 12 10221ft 170kts
22-Sep-18 12:37 44.276402 -120.543950 321 9934ft 146kts
22-Sep-18 12:38 44.297962 -120.589121 286 9429ft 137kts
22-Sep-18 12:39 44.309688 -120.642788 284 9432ft 151kts
22-Sep-18 12:40 44.319652 -120.697192 283 9418ft 134kts
22-Sep-18 12:41 44.335203 -120.742099 307 9423ft 128kts
22-Sep-18 12:42 44.366800 -120.755413 11 9427ft 128kts
22-Sep-18 12:43 44.383292 -120.786593 266 9004ft 138kts
22-Sep-18 12:44 44.377927 -120.845427 259 7846ft 159kts
22-Sep-18 12:45 44.366907 -120.895926 235 7315ft 147kts
22-Sep-18 12:46 44.342403 -120.944655 226 5524ft 154kts
22-Sep-18 12:47 44.322102 -120.989464 232 5325ft 134kts
22-Sep-18 12:48 44.302564 -121.030468 237 4975ft 125kts
22-Sep-18 12:49 44.285604 -121.073499 239 4141ft 124kts
22-Sep-18 12:50 44.268803 -121.114488 238 3514ft 115kts
22-Sep-18 12:51 44.256222 -121.145225 238 3081ft 33kts
22-Sep-18 12:52 44.256454 -121.153239 301 3081ft 25kts
22-Sep-18 12:53 44.259232 -121.156763 306 3081ft 0kts
22-Sep-18 12:54 44.259232 -121.156763 306 3081ft 0kts
22-Sep-18 12:55 44.259232 -121.156763 306 3081ft 0kts
22-Sep-18 12:56 44.259232 -121.156763 306 3081ft 0kts
22-Sep-18 12:57 44.259232 -121.156763 306 3081ft 0kts
22-Sep-18 12:58 44.259232 -121.156763 306 3081ft 0kts
22-Sep-18 12:59 44.259232 -121.156763 306 3081ft 0kts
22-Sep-18 13:00 44.259232 -121.156763 306 3081ft 0kts
22-Sep-18 13:01 44.259232 -121.156763 306 3081ft 0kts
22-Sep-18 13:02 44.259232 -121.156763 306 3081ft 0kts
22-Sep-18 13:03 44.259232 -121.156763 306 3081ft 0kts
22-Sep-18 13:04 44.259232 -121.156763 306 3081ft 0kts
22-Sep-18 13:05 44.259232 -121.156763 306 3081ft 0kts

Navigation Log

Ident Type
Flight plan parsing failed, navigation log unavailable